Arcadia, South Carolina
Current Conditions -  °F | °C
As of 1:15 PM on Thursday 27 Nov 2014 (Local Time) from KSPA Reporting Station
Scattered Clouds Scattered Clouds  
Wind Chill: 54°   Ceiling: Unl
Heat Index: 54°   Visibility: 10mi
Dew Point: 27°   Wind: 15mph
Humidity: 35%   Direction: 330°NNW
Pressure: 30.13"   Gusts: 21mph
Location:  34.96°N, 81.99°W
Report Text: KSPA 271815Z AUTO 33013G18KT 10SM SCT055 12/M03 A3013 RMK AO2
Loading
Personal Weather Stations






























Interactive Weather Map New forecast layout! Learn more

10-Day Weather Forecast

Advertisements
Track Severe Weather on mobile